»·PEaware :: N292MC A39-P14

N292MC :: A39-P14

FLIGHT INFORMATION

Flight Status: Arrived
Operator: Privately registered:
United States
More flights under this callsign
Pilot: Maurice C. (12314)
Aircraft: Unknown
(KODI)
More flights by this aircraft type
Origin: A39 Ak-Chin Regional
United States
Destination: P14 Holbrook Mun
United States
More flights between these airports :: More routes between these airports
Route: IWA VPBAR FERER INW
File this flight plan on PilotEdge
Remarks: ALPHABET CHALLENGE
Altitude:
(Current/Filed)
9,500ft
Speed:
(Current/Filed)
180kts
Departed: 27-Oct-20 11:06 AM
Arrived: 27-Oct-20 12:11 PM
Distance/Time
Traveled:
146nm/1:04
Distance/Time
To Go:
Arrived

Flight Plot

Page will automatically refresh every two minutes.

Flight plan parsing failed; only flown route is shown


Map Options




Map Legend


Flown Route
Filed Route
Departure Airport
Arrival Airport
Navaid (VOR, NDB)
Fix

Horizontal Profiles

Position Reports

Time Latitude Longitude Heading Altitude Ground
Speed
27-Oct-20 10:53 32.992239 -111.918707 220 1297ft 0kts
27-Oct-20 10:55 32.992238 -111.918707 220 1297ft 0kts
27-Oct-20 10:55 32.992238 -111.918707 220 1297ft 0kts
27-Oct-20 10:56 32.992238 -111.918707 220 1297ft 0kts
27-Oct-20 10:57 32.992238 -111.918707 220 1297ft 0kts
27-Oct-20 10:58 32.992238 -111.918707 220 1297ft 0kts
27-Oct-20 11:00 32.992235 -111.918711 220 1297ft 0kts
27-Oct-20 11:00 32.992235 -111.918711 220 1297ft 0kts
27-Oct-20 11:01 32.991952 -111.919153 240 1296ft 9kts
27-Oct-20 11:02 32.989094 -111.922349 222 1288ft 20kts
27-Oct-20 11:03 32.986191 -111.925459 301 1280ft 0kts
27-Oct-20 11:04 32.987487 -111.924936 40 1281ft 36kts
27-Oct-20 11:05 33.008932 -111.901892 40 1981ft 148kts
27-Oct-20 11:06 33.045920 -111.873548 33 2489ft 165kts
27-Oct-20 11:07 33.083410 -111.841533 34 2932ft 166kts
27-Oct-20 11:08 33.120378 -111.809843 34 3486ft 161kts
27-Oct-20 11:09 33.156557 -111.778776 34 4020ft 163kts
27-Oct-20 11:10 33.194529 -111.746032 34 4015ft 171kts
27-Oct-20 11:11 33.233415 -111.712526 34 4007ft 173kts
27-Oct-20 11:12 33.272090 -111.679166 34 4005ft 171kts
27-Oct-20 11:13 33.311916 -111.648428 14 3999ft 170kts
27-Oct-20 11:14 33.359325 -111.650111 1 4002ft 172kts
27-Oct-20 11:15 33.407378 -111.648230 2 3992ft 173kts
27-Oct-20 11:16 33.455617 -111.646400 2 3985ft 173kts
27-Oct-20 11:17 33.502029 -111.644711 3 4471ft 166kts
27-Oct-20 11:18 33.549943 -111.642839 2 4475ft 174kts
27-Oct-20 11:19 33.598350 -111.641005 2 4472ft 174kts
27-Oct-20 11:20 33.645049 -111.639277 2 4860ft 163kts
27-Oct-20 11:21 33.690261 -111.637589 2 5365ft 162kts
27-Oct-20 11:22 33.735225 -111.635885 3 5858ft 161kts
27-Oct-20 11:23 33.779894 -111.634181 3 6330ft 161kts
27-Oct-20 11:24 33.825675 -111.633770 351 6484ft 171kts
27-Oct-20 11:25 33.871650 -111.646601 349 6767ft 164kts
27-Oct-20 11:26 33.915444 -111.658777 349 7302ft 160kts
27-Oct-20 11:27 33.958857 -111.671042 349 7822ft 160kts
27-Oct-20 11:28 34.002070 -111.683387 349 8327ft 160kts
27-Oct-20 11:29 34.046508 -111.696344 349 8484ft 170kts
27-Oct-20 11:30 34.092810 -111.709764 349 8473ft 172kts
27-Oct-20 11:31 34.139000 -111.723226 349 8553ft 171kts
27-Oct-20 11:32 34.184577 -111.714640 18 8536ft 167kts
27-Oct-20 11:33 34.228793 -111.697804 19 8543ft 166kts
27-Oct-20 11:34 34.272785 -111.680088 28 8537ft 165kts
27-Oct-20 11:35 34.311821 -111.650513 31 8541ft 164kts
27-Oct-20 11:36 34.349829 -111.619341 34 8535ft 166kts
27-Oct-20 11:37 34.387698 -111.587603 34 8526ft 166kts
27-Oct-20 11:38 34.423248 -111.552565 47 8520ft 165kts
27-Oct-20 11:39 34.453339 -111.510352 49 8517ft 165kts
27-Oct-20 11:40 34.483579 -111.469148 46 8734ft 158kts
27-Oct-20 11:41 34.512095 -111.430475 46 9273ft 152kts
27-Oct-20 11:42 34.541150 -111.391958 45 9511ft 160kts
27-Oct-20 11:43 34.571504 -111.351411 47 9509ft 163kts
27-Oct-20 11:44 34.601961 -111.310641 47 9556ft 164kts
27-Oct-20 11:45 34.631291 -111.267995 49 9567ft 164kts
27-Oct-20 11:46 34.661014 -111.225851 47 9577ft 164kts
27-Oct-20 11:47 34.691607 -111.184897 46 9580ft 164kts
27-Oct-20 11:48 34.722302 -111.143881 46 9589ft 164kts
27-Oct-20 11:49 34.753058 -111.102797 46 9595ft 164kts
27-Oct-20 11:50 34.783800 -111.061824 46 9590ft 164kts
27-Oct-20 11:51 34.814653 -111.020668 46 9586ft 164kts
27-Oct-20 11:52 34.845415 -110.979689 46 9583ft 164kts
27-Oct-20 11:53 34.876285 -110.938677 46 9580ft 164kts
27-Oct-20 11:54 34.903321 -110.893593 56 9452ft 170kts
27-Oct-20 11:55 34.929038 -110.842433 56 8717ft 180kts
27-Oct-20 11:56 34.955353 -110.789770 57 7944ft 184kts
27-Oct-20 11:57 34.973281 -110.731107 69 7460ft 178kts
27-Oct-20 11:58 34.987911 -110.674795 69 7462ft 170kts
27-Oct-20 11:59 34.997926 -110.619042 93 7471ft 172kts
27-Oct-20 12:00 34.985983 -110.561733 99 7481ft 174kts
27-Oct-20 12:01 34.975749 -110.503863 97 7454ft 177kts
27-Oct-20 12:02 34.965887 -110.445502 97 7448ft 174kts
27-Oct-20 12:03 34.955840 -110.387654 97 7447ft 174kts
27-Oct-20 12:04 34.945557 -110.327803 98 7021ft 179kts
27-Oct-20 12:05 34.935681 -110.283097 107 6897ft 114kts
27-Oct-20 12:06 34.924078 -110.247406 108 6708ft 104kts
27-Oct-20 12:07 34.914723 -110.215042 105 6723ft 104kts
27-Oct-20 12:08 34.907779 -110.178981 73 6607ft 103kts
27-Oct-20 12:09 34.924652 -110.154769 35 5590ft 92kts
27-Oct-20 12:10 34.938800 -110.140382 269 5247ft 13kts
27-Oct-20 12:11 34.936888 -110.141226 212 5246ft 8kts
27-Oct-20 12:12 34.935300 -110.142629 312 5243ft 0kts
27-Oct-20 12:13 34.935300 -110.142629 312 5243ft 0kts
27-Oct-20 12:14 34.935300 -110.142629 312 5243ft 0kts
27-Oct-20 12:15 34.935300 -110.142629 312 5243ft 0kts
27-Oct-20 12:16 34.935300 -110.142629 312 5243ft 0kts
27-Oct-20 12:17 34.935300 -110.142629 312 5243ft 0kts
27-Oct-20 12:18 34.935300 -110.142629 312 5243ft 0kts
27-Oct-20 12:19 34.935300 -110.142629 312 5243ft 0kts
27-Oct-20 12:20 34.935300 -110.142629 312 5243ft 0kts
27-Oct-20 12:21 34.935300 -110.142629 312 5243ft 0kts

Navigation Log

Ident Type
Flight plan parsing failed, navigation log unavailable